RJNG(METAR)
10/21 05:00
METAR RJNG 202000Z VRB01KT 9999 FEW030 08/07 Q1024 RMK 1CU030 A3026=
戻る
トップページへ戻る
IMOC Co,.Ltd.